• Join FlightAware (Why Join?)
  • Login
  • US Flag 
03:57AM EST


 

Airport Tracker/Info


-or-


 

Live Flight TrackerFlight Track Log ✈ FAO847 ✈ 05-Mar-2014 ✈ KPIA - KPIE

Flight Track Log - Related Links

Times and Time Zones

All times are in EST time to prevent confusion due to time zone crossing. See the FAO847 flight status page for this flight to view local times or setup timezone preferences in your user account.

Time Position Orientation Groundspeed Altitude Reporting Facility
EST Latitude Longitude Course Direction KTS MPH feet Rate Location/Type
11:55AM 40.6369 -89.6503 360° North 189 217 2,700  Level Chicago Center
11:55AM 40.6369 -89.6503 152° Southeast 189 217 2,600 2,700 Descending Kansas City Center
11:56AM 40.5789 -89.6089 152° Southeast 252 290 5,500 3,000 Climbing Chicago Center
11:57AM 40.5092 -89.5672 156° South 270 311 8,400 2,400 Climbing Chicago Center
11:58AM 40.4361 -89.5061 148° Southeast 300 345 10,500 1,740 Climbing Chicago Center
11:59AM 40.3461 -89.4464 153° Southeast 348 400 12,100 1,680 Climbing Chicago Center
12:00PM 40.2517 -89.3756 150° Southeast 380 437 14,000 1,980 Climbing Chicago Center
12:01PM 40.1511 -89.3064 152° Southeast 405 466 16,200 1,800 Climbing Chicago Center
12:02PM 40.0278 -89.2181 151° Southeast 411 473 18,100 1,620 Climbing Kansas City Center
12:03PM 39.9231 -89.1428 151° Southeast 423 487 19,800 1,560 Climbing Kansas City Center
12:04PM 39.7933 -89.0503 151° Southeast 436 502 21,400 1,500 Climbing Kansas City Center
12:05PM 39.6814 -88.9694 151° Southeast 452 520 23,000 1,440 Climbing Kansas City Center
12:06PM 39.5678 -88.8914 152° Southeast 455 524 24,400 1,620 Climbing Kansas City Center
12:07PM 39.4572 -88.8089 150° Southeast 457 526 26,400 1,500 Climbing Kansas City Center
12:08PM 39.3472 -88.7356 153° Southeast 445 512 27,600 1,260 Climbing Kansas City Center
12:09PM 39.2364 -88.6581 152° Southeast 449 517 29,100 1,200 Climbing Kansas City Center
12:10PM 39.1164 -88.5786 153° Southeast 445 512 30,200 720 Climbing Kansas City Center
12:11PM 39.0031 -88.5183 158° South 440 506 30,700 360 Climbing Kansas City Center
12:12PM 38.8897 -88.4539 156° South 440 506 31,000 120 Climbing Kansas City Center
12:13PM 38.7525 -88.3794 157° South 442 509 31,000  Level Kansas City Center
12:14PM 38.6386 -88.3172 157° South 442 509 31,000  Level Kansas City Center
12:15PM 38.5256 -88.2558 157° South 443 510 31,000  Level Kansas City Center
12:16PM 38.4122 -88.1942 157° South 443 510 31,000  Level Kansas City Center
12:17PM 38.2986 -88.1331 157° South 442 509 31,000  Level Kansas City Center
12:18PM 38.1853 -88.0736 158° South 442 509 31,000  Level Kansas City Center
12:19PM 38.0731 -88.0122 157° South 442 509 31,000  Level Kansas City Center
12:21PM 37.9383 -87.9411 157° South 442 509 31,000  Level Kansas City Center
12:22PM 37.8253 -87.8800 157° South 441 507 31,000  Level Indianapolis Center
12:23PM 37.7039 -87.8153 157° South 441 507 31,000  Level Indianapolis Center
12:24PM 37.5886 -87.7556 158° South 441 507 31,000  Level Indianapolis Center
12:25PM 37.4744 -87.6950 157° South 441 507 31,000 480 Level Indianapolis Center
12:26PM 37.3611 -87.6350 157° South 441 507 32,100 780 Climbing Indianapolis Center
12:27PM 37.2672 -87.5858 157° South 439 505 32,500 420 Climbing Memphis Center
12:28PM 37.1350 -87.5164 157° South 439 505 33,000 240 Climbing Indianapolis Center
12:29PM 37.0183 -87.4578 158° South 442 509 33,000  Level Memphis Center
12:30PM 36.9031 -87.3972 157° South 443 510 33,000  Level Memphis Center
12:31PM 36.7864 -87.3372 158° South 444 511 33,000  Level Memphis Center
12:32PM 36.6600 -87.2731 158° South 444 511 33,000  Level Memphis Center
12:33PM 36.5539 -87.2186 158° South 446 513 33,000  Level Memphis Center
12:34PM 36.4378 -87.1578 157° South 447 514 33,000  Level Memphis Center
12:35PM 36.3031 -87.0883 157° South 448 516 33,000  Level Memphis Center
12:36PM 36.1850 -87.0300 158° South 455 524 33,000  Level Memphis Center
12:37PM 36.0669 -86.9700 158° South 458 527 33,000  Level Memphis Center
12:38PM 35.9478 -86.9108 158° South 458 527 33,000  Level Memphis Center
12:39PM 35.8164 -86.8447 158° South 458 527 33,000  Level Memphis Center
12:40PM 35.6911 -86.7817 158° South 458 527 33,000  Level Memphis Center
12:41PM 35.5722 -86.7231 158° South 458 527 33,000  Level Memphis Center
12:42PM 35.4544 -86.6639 158° South 456 525 33,000  Level Memphis Center
12:43PM 35.3358 -86.6056 158° South 455 524 33,000  Level Memphis Center
12:44PM 35.2169 -86.5461 158° South 455 524 33,000  Level Memphis Center
12:45PM 35.0853 -86.4808 158° South 456 525 33,000  Level Memphis Center
12:46PM 34.9661 -86.4214 158° South 458 527 33,000  Level Memphis Center
12:47PM 34.8475 -86.3642 158° South 458 527 33,000  Level Memphis Center
12:48PM 34.7542 -86.3167 157° South 457 526 33,000  Level Atlanta Center
12:49PM 34.6217 -86.2550 159° South 462 532 33,000  Level Atlanta Center
12:50PM 34.5017 -86.1964 158° South 462 532 33,000  Level Atlanta Center
12:51PM 34.3797 -86.1328 157° South 468 539 33,000  Level Atlanta Center
12:52PM 34.2553 -86.0744 159° South 468 539 33,000  Level Atlanta Center
12:53PM 34.1333 -86.0164 158° South 468 539 33,000  Level Atlanta Center
12:54PM 34.0089 -85.9558 158° South 468 539 33,000  Level Atlanta Center
12:55PM 33.8867 -85.8981 159° South 468 539 33,000  Level Atlanta Center
12:56PM 33.7622 -85.8403 159° South 468 539 33,000  Level Atlanta Center
12:57PM 33.6442 -85.7881 160° South 463 533 33,000  Level Atlanta Center
12:58PM 33.5197 -85.7283 158° South 468 539 33,000  Level Atlanta Center
12:59PM 33.4014 -85.6711 158° South 473 544 33,000  Level Atlanta Center
01:00PM 33.2917 -85.6144 157° South 467 537 33,000  Level Atlanta Center
01:01PM 33.1711 -85.5603 159° South 467 537 33,000  Level Atlanta Center
01:02PM 33.0550 -85.5061 159° South 462 532 33,000  Level Atlanta Center
01:03PM 32.9325 -85.4494 159° South 462 532 33,000  Level Atlanta Center
01:04PM 32.8161 -85.3958 159° South 469 540 33,000  Level Atlanta Center
01:05PM 32.6997 -85.3447 160° South 451 519 33,000  Level Atlanta Center
01:06PM 32.5836 -85.2886 158° South 451 519 33,000  Level Atlanta Center
01:07PM 32.4650 -85.2328 158° South 451 519 33,000  Level Atlanta Center
01:08PM 32.3364 -85.1747 159° South 451 519 33,000  Level Atlanta Center
01:09PM 32.2303 -85.1314 161° South 451 519 33,000  Level Atlanta Center
01:10PM 32.1181 -85.0786 158° South 451 519 33,000  Level Atlanta Center
01:12PM 31.9050 -84.9775 158° South 471 542 33,000  Level Jacksonville Center
01:13PM 31.8056 -84.9339 160° South 449 517 33,000  Level Jacksonville Center
01:14PM 31.6875 -84.8825 160° South 444 511 33,000  Level Jacksonville Center
01:15PM 31.5733 -84.8289 158° South 449 517 33,000 -240 Level Jacksonville Center
01:16PM 31.4594 -84.7728 157° South 444 511 32,600 -600 Descending Jacksonville Center
01:17PM 31.3497 -84.7097 154° Southeast 444 511 31,900 -660 Descending Jacksonville Center
01:18PM 31.2378 -84.6444 153° Southeast 450 518 31,300 -480 Descending Jacksonville Center
01:19PM 31.1239 -84.5792 154° Southeast 450 518 31,000 -180 Descending Jacksonville Center
01:20PM 31.0100 -84.5142 154° Southeast 450 518 31,000  Level Jacksonville Center
01:21PM 30.8958 -84.4517 155° Southeast 450 518 31,000  Level Jacksonville Center
01:22PM 30.7839 -84.3869 154° Southeast 450 518 31,000  Level Jacksonville Center
01:23PM 30.6678 -84.3200 154° Southeast 462 532 31,000  Level Jacksonville Center
01:24PM 30.5558 -84.2556 154° Southeast 462 532 31,000  Level Jacksonville Center
01:25PM 30.4417 -84.1914 154° Southeast 457 526 31,000  Level Jacksonville Center
01:26PM 30.3336 -84.1297 154° Southeast 450 518 31,000  Level Jacksonville Center
01:27PM 30.2194 -84.0681 155° Southeast 443 510 31,000 -300 Level Jacksonville Center
01:28PM 30.1092 -84.0042 153° Southeast 443 510 30,500 -660 Descending Jacksonville Center
01:29PM 29.9969 -83.9406 154° Southeast 443 510 29,700 -900 Descending Jacksonville Center
01:30PM 29.8828 -83.8794 155° Southeast 443 510 28,800 -900 Descending Jacksonville Center
01:31PM 29.7683 -83.8136 153° Southeast 453 521 28,000 -900 Descending Jacksonville Center
01:32PM 29.6497 -83.7481 154° Southeast 460 529 27,100 -540 Descending Jacksonville Center
01:33PM 29.5375 -83.6875 155° Southeast 460 529 27,000 -120 Descending Jacksonville Center
01:34PM 29.4231 -83.6244 154° Southeast 460 529 26,900 -600 Descending Jacksonville Center
01:35PM 29.3106 -83.5617 154° Southeast 460 529 25,900 -1,020 Descending Jacksonville Center
01:36PM 29.1983 -83.4967 153° Southeast 455 524 24,900 -1,080 Descending Jacksonville Center
01:37PM 29.0900 -83.4297 152° Southeast 445 512 23,800 -1,260 Descending Jacksonville Center
01:38PM 28.9839 -83.3603 150° Southeast 445 512 22,400 -1,500 Descending Jacksonville Center
01:39PM 28.8817 -83.2981 152° Southeast 430 495 20,800 -1,680 Descending Jacksonville Center
01:40PM 28.7797 -83.2314 150° Southeast 423 487 19,100 -1,680 Descending Jacksonville Center
01:42PM 28.5333 -83.0833 152° Southeast 383 441 15,200 -1,560 Descending Tampa TRACON
01:43PM 28.4500 -83.0167 145° Southeast 377 434 13,800 -1,500 Descending Tampa TRACON
01:44PM 28.3500 -82.9667 156° South 371 427 12,300 -1,320 Descending Tampa TRACON
01:45PM 28.2500 -82.9000 150° Southeast 346 398 11,100 -1,020 Descending Tampa TRACON
01:46PM 28.1833 -82.8667 156° South 285 328 10,200 -1,320 Descending Tampa TRACON
01:47PM 28.1000 -82.8333 161° South 276 318 8,500 -2,040 Descending Tampa TRACON
01:48PM 28.0333 -82.8167 168° South 273 314 6,400 -2,280 Descending Tampa TRACON
01:49PM 27.9667 -82.8000 168° South 244 281 4,200 -1,740 Descending Tampa TRACON
01:50PM 27.9167 -82.7833 164° South 214 246 3,000 -600 Descending Tampa TRACON
01:51PM 27.8500 -82.7833 180° South 162 186 3,000  Level Tampa TRACON
01:52PM 27.8167 -82.7667 156° South 169 194 3,000 -300 Level Tampa TRACON
01:53PM 27.7833 -82.7333 138° Southeast 192 221 2,400 -720 Descending Tampa TRACON
01:54PM 27.8167 -82.6833 53° Northeast 196 226 1,600 -720 Descending Tampa TRACON
01:55PM 27.8500 -82.6833 360° North 152 175 900 -660 Descending Tampa TRACON